createdAt,value
2023-04-30T00:02:22.061Z,60.26
2023-04-30T00:04:50.652Z,60.55
2023-04-30T00:07:28.347Z,60.90
2023-04-30T00:09:57.069Z,60.97
2023-04-30T00:12:25.731Z,60.73
2023-04-30T00:14:56.623Z,61.74
2023-04-30T00:17:26.525Z,61.75
2023-04-30T00:19:54.990Z,61.84
2023-04-30T00:22:23.467Z,61.64
2023-04-30T00:24:52.157Z,61.83
2023-04-30T00:27:20.566Z,61.93
2023-04-30T00:29:49.031Z,62.05
2023-04-30T00:32:17.610Z,61.98
2023-04-30T00:34:46.308Z,62.43
2023-04-30T00:37:15.918Z,61.86
2023-04-30T00:39:44.927Z,62.36
2023-04-30T00:42:13.303Z,62.52
2023-04-30T00:44:41.995Z,62.33
2023-04-30T00:47:11.210Z,62.25
2023-04-30T00:49:39.483Z,61.91
2023-04-30T00:52:08.154Z,61.80
2023-04-30T00:54:36.557Z,61.40
2023-04-30T00:57:07.090Z,61.58
2023-04-30T00:59:35.718Z,61.48
2023-04-30T01:02:04.527Z,61.19
2023-04-30T01:04:33.721Z,61.24
2023-04-30T01:07:02.474Z,61.02
2023-04-30T01:09:31.697Z,60.92
2023-04-30T01:12:44.473Z,60.82
2023-04-30T01:15:25.645Z,60.62
2023-04-30T01:18:13.974Z,61.06
2023-04-30T01:20:52.912Z,61.25
2023-04-30T01:23:30.010Z,61.29
2023-04-30T01:26:04.414Z,61.23
2023-04-30T01:28:36.477Z,61.58
2023-04-30T01:31:15.385Z,61.42
2023-04-30T01:33:44.227Z,61.56
2023-04-30T01:36:35.802Z,61.73
2023-04-30T01:39:23.054Z,62.03
2023-04-30T01:41:56.532Z,61.93
2023-04-30T01:44:43.235Z,62.31
2023-04-30T01:47:17.963Z,62.80
2023-04-30T01:50:08.861Z,62.42
2023-04-30T01:52:42.375Z,62.53
2023-04-30T01:55:51.038Z,62.66
2023-04-30T01:58:23.040Z,62.49
2023-04-30T02:00:52.145Z,62.55
2023-04-30T02:03:20.806Z,62.44
2023-04-30T02:05:51.588Z,62.71
2023-04-30T02:08:20.055Z,62.83
2023-04-30T02:10:48.438Z,63.06
2023-04-30T02:13:17.640Z,63.13
2023-04-30T02:15:46.570Z,63.62
2023-04-30T02:18:15.186Z,63.57
2023-04-30T02:20:44.132Z,63.73
2023-04-30T02:23:13.634Z,63.93
2023-04-30T02:25:42.119Z,64.06
2023-04-30T02:28:10.403Z,64.72
2023-04-30T02:30:39.605Z,64.48
2023-04-30T02:33:08.282Z,64.55
2023-04-30T02:35:36.679Z,64.75
2023-04-30T02:38:06.187Z,64.54
2023-04-30T02:40:34.986Z,64.40
2023-04-30T02:43:03.684Z,64.46
2023-04-30T02:45:32.394Z,64.04
2023-04-30T02:48:01.648Z,63.92
2023-04-30T02:50:30.575Z,63.93
2023-04-30T02:52:59.049Z,63.97
2023-04-30T02:55:27.575Z,63.60
2023-04-30T02:57:56.436Z,63.32
2023-04-30T03:00:24.887Z,63.19
2023-04-30T03:02:53.354Z,62.68
2023-04-30T03:05:21.690Z,62.90
2023-04-30T03:07:49.971Z,62.69
2023-04-30T03:10:19.345Z,62.45
2023-04-30T03:12:47.764Z,62.30
2023-04-30T03:15:16.251Z,62.35
2023-04-30T03:17:46.353Z,62.19
2023-04-30T03:20:15.392Z,62.63
2023-04-30T03:22:46.531Z,62.68
2023-04-30T03:25:15.113Z,63.40
2023-04-30T03:27:43.400Z,63.52
2023-04-30T03:30:12.007Z,63.98
2023-04-30T03:32:40.911Z,64.00
2023-04-30T03:35:09.579Z,64.15
2023-04-30T03:37:38.059Z,64.65
2023-04-30T03:40:07.414Z,65.07
2023-04-30T03:42:35.661Z,65.13
2023-04-30T03:45:05.090Z,65.35
2023-04-30T03:47:34.060Z,64.80
2023-04-30T03:50:04.291Z,65.03
2023-04-30T03:52:33.898Z,64.95
2023-04-30T03:55:06.082Z,64.98
2023-04-30T03:57:34.451Z,65.23
2023-04-30T04:00:07.840Z,65.09
2023-04-30T04:02:41.610Z,64.97
2023-04-30T04:05:11.679Z,64.99
2023-04-30T04:07:39.977Z,64.92
2023-04-30T04:10:09.106Z,64.72
2023-04-30T04:12:38.177Z,64.66
2023-04-30T04:15:07.624Z,64.21
2023-04-30T04:17:38.876Z,63.88
2023-04-30T04:20:08.430Z,63.65
2023-04-30T04:22:37.742Z,63.49
2023-04-30T04:25:07.294Z,63.01
2023-04-30T04:27:36.711Z,62.85
2023-04-30T04:30:08.433Z,62.64
2023-04-30T04:32:48.443Z,62.61
2023-04-30T04:35:18.585Z,62.27
2023-04-30T04:37:47.086Z,62.07
2023-04-30T04:40:15.780Z,61.72
2023-04-30T04:42:44.051Z,61.55
2023-04-30T04:45:16.129Z,61.38
2023-04-30T04:47:45.293Z,61.17
2023-04-30T04:50:14.522Z,61.16
2023-04-30T04:52:44.134Z,61.10
2023-04-30T04:55:14.158Z,60.80
2023-04-30T04:57:42.748Z,60.78
2023-04-30T05:00:12.912Z,60.60
2023-04-30T05:02:41.449Z,60.49
2023-04-30T05:05:11.154Z,60.27
2023-04-30T05:07:40.188Z,60.55
2023-04-30T05:10:09.932Z,60.14
2023-04-30T05:12:38.375Z,60.09
2023-04-30T05:15:07.542Z,59.55
2023-04-30T05:17:36.124Z,59.27
2023-04-30T05:20:07.480Z,59.05
2023-04-30T05:22:36.013Z,58.50
2023-04-30T05:25:06.080Z,57.97
2023-04-30T05:27:34.429Z,57.83
2023-04-30T05:30:03.325Z,57.43
2023-04-30T05:32:31.726Z,57.40
2023-04-30T05:35:00.079Z,56.89
2023-04-30T05:37:29.079Z,56.91
2023-04-30T05:39:57.563Z,56.81
2023-04-30T05:42:26.049Z,56.70
2023-04-30T05:44:54.540Z,56.85
2023-04-30T05:47:23.125Z,56.82
2023-04-30T05:49:51.817Z,56.78
2023-04-30T05:52:20.413Z,56.60
2023-04-30T05:54:50.044Z,56.44
2023-04-30T05:57:18.517Z,56.34
2023-04-30T05:59:46.799Z,56.41
2023-04-30T06:02:15.171Z,56.41
2023-04-30T06:04:43.801Z,56.18
2023-04-30T06:07:13.392Z,55.85
2023-04-30T06:09:41.764Z,55.69
2023-04-30T06:12:10.658Z,55.59
2023-04-30T06:14:39.861Z,55.29
2023-04-30T06:17:08.554Z,54.73
2023-04-30T06:19:39.005Z,54.69
2023-04-30T06:22:07.375Z,54.65
2023-04-30T06:24:36.058Z,54.76
2023-04-30T06:27:05.171Z,54.78
2023-04-30T06:29:33.549Z,54.72
2023-04-30T06:32:02.256Z,54.46
2023-04-30T06:34:31.344Z,53.96
2023-04-30T06:36:59.827Z,53.56
2023-04-30T06:39:28.313Z,53.58
2023-04-30T06:41:56.810Z,53.42
2023-04-30T06:44:25.085Z,53.24
2023-04-30T06:46:54.713Z,52.55
2023-04-30T06:49:23.290Z,52.54
2023-04-30T06:51:51.777Z,52.61
2023-04-30T06:54:22.918Z,52.43
2023-04-30T06:56:51.213Z,52.10
2023-04-30T06:59:22.980Z,51.39
2023-04-30T07:01:51.636Z,50.18
2023-04-30T07:04:20.358Z,49.70
2023-04-30T07:06:48.642Z,48.55
2023-04-30T07:09:17.420Z,47.80
2023-04-30T07:11:45.905Z,47.05
2023-04-30T07:14:14.093Z,46.70
2023-04-30T07:16:42.474Z,46.53
2023-04-30T07:19:11.162Z,45.79
2023-04-30T07:21:39.345Z,45.97
2023-04-30T07:24:07.843Z,45.48
2023-04-30T07:26:36.589Z,45.29
2023-04-30T07:29:05.315Z,45.23
2023-04-30T07:31:34.443Z,43.33
2023-04-30T07:34:02.931Z,43.31
2023-04-30T07:36:31.793Z,42.05
2023-04-30T07:39:00.601Z,41.82
2023-04-30T07:41:28.771Z,41.97
2023-04-30T07:43:57.870Z,40.55
2023-04-30T07:46:26.501Z,39.23
2023-04-30T07:48:55.865Z,39.16
2023-04-30T07:51:24.259Z,39.39
2023-04-30T07:53:56.137Z,38.85
2023-04-30T07:56:24.496Z,38.86
2023-04-30T07:58:52.786Z,39.03
2023-04-30T08:01:21.079Z,37.21
2023-04-30T08:03:49.479Z,35.02
2023-04-30T08:06:17.863Z,34.39
2023-04-30T08:08:46.117Z,34.76
2023-04-30T08:11:15.644Z,34.41
2023-04-30T08:13:44.031Z,32.77
2023-04-30T08:16:12.931Z,33.36
2023-04-30T08:18:45.105Z,32.93
2023-04-30T08:21:13.938Z,33.02
2023-04-30T08:23:42.369Z,32.96
2023-04-30T08:26:11.773Z,33.21
2023-04-30T08:28:40.051Z,32.81
2023-04-30T08:31:08.950Z,32.88
2023-04-30T08:33:37.642Z,32.68
2023-04-30T08:36:06.327Z,31.33
2023-04-30T08:38:35.125Z,30.48
2023-04-30T08:41:14.249Z,30.75
2023-04-30T08:43:45.421Z,31.50
2023-04-30T08:46:16.821Z,31.11
2023-04-30T08:48:45.769Z,31.44
2023-04-30T08:51:17.413Z,31.58
2023-04-30T08:53:46.719Z,30.48
2023-04-30T08:56:15.510Z,29.28
2023-04-30T08:58:44.506Z,29.41
2023-04-30T09:01:13.958Z,29.31
2023-04-30T09:03:42.619Z,28.31
2023-04-30T09:06:19.258Z,27.66
2023-04-30T09:08:51.512Z,27.68
2023-04-30T09:11:31.449Z,27.56
2023-04-30T09:14:01.490Z,29.03
2023-04-30T09:16:46.069Z,28.54
2023-04-30T09:19:28.686Z,28.15
2023-04-30T09:21:57.693Z,26.97
2023-04-30T09:24:26.290Z,26.78
2023-04-30T09:26:55.169Z,26.42
2023-04-30T09:29:40.302Z,26.08
2023-04-30T09:32:10.120Z,25.46
2023-04-30T09:34:38.438Z,25.45
2023-04-30T09:37:07.862Z,25.59
2023-04-30T09:39:48.563Z,24.88
2023-04-30T09:42:18.225Z,23.89
2023-04-30T09:44:47.598Z,24.23
2023-04-30T09:47:19.354Z,24.43
2023-04-30T09:49:52.764Z,24.65
2023-04-30T09:52:21.423Z,23.45
2023-04-30T09:54:49.791Z,23.53
2023-04-30T09:57:23.270Z,23.60
2023-04-30T09:59:53.577Z,23.02
2023-04-30T10:02:24.062Z,21.80
2023-04-30T10:04:58.548Z,21.44
2023-04-30T10:07:34.299Z,20.02
2023-04-30T10:10:10.786Z,19.51
2023-04-30T10:12:56.658Z,19.63
2023-04-30T10:15:50.312Z,19.01
2023-04-30T10:18:51.080Z,19.42
2023-04-30T10:21:23.105Z,19.43
2023-04-30T10:23:58.349Z,18.28
2023-04-30T10:26:28.609Z,18.62
2023-04-30T10:28:59.149Z,17.50
2023-04-30T10:31:29.218Z,16.88
2023-04-30T10:34:09.697Z,17.13
2023-04-30T10:36:44.877Z,17.20
2023-04-30T10:39:13.653Z,17.38
2023-04-30T10:41:47.340Z,16.63
2023-04-30T10:44:22.671Z,17.38
2023-04-30T10:46:59.295Z,17.76
2023-04-30T10:49:27.834Z,17.98
2023-04-30T10:52:00.825Z,17.29
2023-04-30T10:54:34.936Z,17.14
2023-04-30T10:57:14.501Z,16.58
2023-04-30T10:59:45.422Z,16.65
2023-04-30T11:02:17.809Z,16.74
2023-04-30T11:05:05.000Z,17.29
2023-04-30T11:07:34.312Z,17.63
2023-04-30T11:10:03.387Z,18.19
2023-04-30T11:12:31.811Z,17.73
2023-04-30T11:15:14.819Z,17.36
2023-04-30T11:17:46.796Z,16.14
2023-04-30T11:20:25.696Z,17.09
2023-04-30T11:23:17.482Z,17.56
2023-04-30T11:25:56.832Z,17.80
2023-04-30T11:28:26.484Z,17.31
2023-04-30T11:30:57.554Z,17.45
2023-04-30T11:33:31.231Z,17.18
2023-04-30T11:36:01.228Z,16.32
2023-04-30T11:38:34.135Z,16.53
2023-04-30T11:41:03.830Z,16.46
2023-04-30T11:43:34.263Z,16.03
2023-04-30T11:46:15.578Z,16.09
2023-04-30T11:48:46.550Z,15.12
2023-04-30T11:51:20.430Z,13.53
2023-04-30T11:53:50.339Z,14.56
2023-04-30T11:56:22.584Z,14.47
2023-04-30T11:58:52.761Z,14.45
2023-04-30T12:01:21.743Z,14.05
2023-04-30T12:03:53.520Z,14.32
2023-04-30T12:06:24.260Z,13.06
2023-04-30T12:08:55.194Z,13.14
2023-04-30T12:11:26.044Z,12.42
2023-04-30T12:14:07.765Z,13.64
2023-04-30T12:16:52.796Z,13.67
2023-04-30T12:19:25.267Z,13.75
2023-04-30T12:21:55.291Z,14.00
2023-04-30T12:24:27.653Z,14.50
2023-04-30T12:26:56.135Z,14.52
2023-04-30T12:29:25.974Z,14.47
2023-04-30T12:31:54.381Z,14.73
2023-04-30T12:34:27.651Z,14.60
2023-04-30T12:36:58.636Z,14.57
2023-04-30T12:39:34.338Z,14.93
2023-04-30T12:42:03.798Z,14.98
2023-04-30T12:44:32.023Z,14.75
2023-04-30T12:47:08.282Z,14.90
2023-04-30T12:49:36.806Z,15.44
2023-04-30T12:52:12.693Z,15.26
2023-04-30T12:54:41.412Z,14.80
2023-04-30T12:57:12.642Z,15.19
2023-04-30T12:59:59.465Z,14.63
2023-04-30T13:02:29.655Z,14.08
2023-04-30T13:04:58.487Z,14.78
2023-04-30T13:07:27.178Z,14.74
2023-04-30T13:09:56.099Z,13.85
2023-04-30T13:12:24.660Z,14.44
2023-04-30T13:14:53.152Z,14.50
2023-04-30T13:17:22.861Z,14.49
2023-04-30T13:19:51.348Z,14.82
2023-04-30T13:22:20.039Z,14.62
2023-04-30T13:24:48.635Z,14.25
2023-04-30T13:27:19.681Z,14.14
2023-04-30T13:29:49.160Z,14.53
2023-04-30T13:32:17.570Z,14.68
2023-04-30T13:34:45.951Z,14.62
2023-04-30T13:37:14.241Z,14.41
2023-04-30T13:39:42.929Z,15.26
2023-04-30T13:42:11.312Z,15.90
2023-04-30T13:44:40.629Z,16.26
2023-04-30T13:47:10.620Z,16.45
2023-04-30T13:49:39.030Z,16.54
2023-04-30T13:52:07.519Z,16.39
2023-04-30T13:54:37.751Z,16.00
2023-04-30T13:57:06.609Z,15.63
2023-04-30T13:59:35.073Z,15.25
2023-04-30T14:02:03.420Z,14.35
2023-04-30T14:04:32.639Z,13.35
2023-04-30T14:07:02.229Z,13.47
2023-04-30T14:09:31.029Z,13.24
2023-04-30T14:11:59.951Z,13.20
2023-04-30T14:14:28.869Z,12.43
2023-04-30T14:16:57.321Z,12.27
2023-04-30T14:19:25.987Z,11.72
2023-04-30T14:21:55.737Z,12.14
2023-04-30T14:24:24.502Z,11.54
2023-04-30T14:26:52.775Z,11.77
2023-04-30T14:29:21.832Z,11.85
2023-04-30T14:31:50.704Z,11.93
2023-04-30T14:34:20.036Z,11.78
2023-04-30T14:36:48.255Z,12.54
2023-04-30T14:39:16.857Z,12.89
2023-04-30T14:41:45.539Z,13.28
2023-04-30T14:44:14.025Z,13.08
2023-04-30T14:46:42.925Z,13.44
2023-04-30T14:49:11.521Z,13.65
2023-04-30T14:51:39.694Z,13.99
2023-04-30T14:54:08.278Z,14.04
2023-04-30T14:56:36.949Z,14.68
2023-04-30T14:59:05.158Z,14.93
2023-04-30T15:01:33.699Z,15.64
2023-04-30T15:04:02.446Z,15.64
2023-04-30T15:06:31.239Z,16.13
2023-04-30T15:09:00.126Z,16.44
2023-04-30T15:11:28.506Z,15.38
2023-04-30T15:13:56.999Z,15.18
2023-04-30T15:16:25.652Z,15.21
2023-04-30T15:18:54.796Z,15.69
2023-04-30T15:21:23.681Z,15.05
2023-04-30T15:23:53.303Z,14.85
2023-04-30T15:26:21.884Z,14.41
2023-04-30T15:28:50.576Z,14.12
2023-04-30T15:31:19.144Z,13.79
2023-04-30T15:33:47.661Z,13.91
2023-04-30T15:36:16.236Z,14.05
2023-04-30T15:38:44.732Z,13.90
2023-04-30T15:41:13.105Z,14.71
2023-04-30T15:43:41.501Z,14.65
2023-04-30T15:46:10.488Z,14.31
2023-04-30T15:48:38.784Z,13.81
2023-04-30T15:51:07.058Z,13.53
2023-04-30T15:53:35.737Z,13.77
2023-04-30T15:56:04.857Z,13.57
2023-04-30T15:58:33.247Z,13.33
2023-04-30T16:01:02.146Z,13.32
2023-04-30T16:03:31.071Z,13.46
2023-04-30T16:06:01.113Z,13.70
2023-04-30T16:08:29.819Z,13.62
2023-04-30T16:10:58.134Z,13.57
2023-04-30T16:13:26.819Z,13.49
2023-04-30T16:15:55.438Z,14.01
2023-04-30T16:18:23.791Z,14.35
2023-04-30T16:20:52.185Z,14.71
2023-04-30T16:23:20.564Z,15.13
2023-04-30T16:25:49.159Z,15.51
2023-04-30T16:28:17.645Z,15.77
2023-04-30T16:30:46.225Z,15.98
2023-04-30T16:33:15.088Z,16.85
2023-04-30T16:35:43.752Z,16.94
2023-04-30T16:38:12.609Z,16.63
2023-04-30T16:40:40.895Z,16.80
2023-04-30T16:43:09.789Z,17.52
2023-04-30T16:45:38.528Z,18.29
2023-04-30T16:48:07.221Z,18.62
2023-04-30T16:50:35.687Z,18.96
2023-04-30T16:53:04.040Z,19.35
2023-04-30T16:55:33.547Z,19.82
2023-04-30T16:58:02.041Z,20.19
2023-04-30T17:00:30.415Z,20.33
2023-04-30T17:02:59.003Z,20.43
2023-04-30T17:05:27.596Z,20.90
2023-04-30T17:07:55.980Z,21.00
2023-04-30T17:10:24.416Z,21.27
2023-04-30T17:12:52.857Z,21.52
2023-04-30T17:15:29.305Z,21.72
2023-04-30T17:17:58.191Z,21.99
2023-04-30T17:20:26.607Z,22.35
2023-04-30T17:22:56.230Z,22.83
2023-04-30T17:25:25.416Z,23.56
2023-04-30T17:27:59.332Z,24.75
2023-04-30T17:30:29.086Z,25.47
2023-04-30T17:32:58.773Z,25.71
2023-04-30T17:35:27.666Z,26.63
2023-04-30T17:37:56.663Z,27.11
2023-04-30T17:40:25.253Z,28.25
2023-04-30T17:42:54.150Z,28.55
2023-04-30T17:45:22.540Z,28.47
2023-04-30T17:47:51.455Z,28.47
2023-04-30T17:50:19.711Z,28.41
2023-04-30T17:52:48.403Z,29.34
2023-04-30T17:55:17.103Z,29.74
2023-04-30T17:57:45.375Z,30.27
2023-04-30T18:00:15.340Z,31.61
2023-04-30T18:02:44.467Z,31.18
2023-04-30T18:05:12.987Z,31.73
2023-04-30T18:07:41.479Z,32.85
2023-04-30T18:10:10.094Z,33.44
2023-04-30T18:12:38.579Z,33.53
2023-04-30T18:15:08.898Z,34.00
2023-04-30T18:17:40.589Z,33.95
2023-04-30T18:20:12.093Z,34.38
2023-04-30T18:22:43.647Z,35.64
2023-04-30T18:25:13.592Z,35.74
2023-04-30T18:27:41.955Z,36.06
2023-04-30T18:30:12.835Z,36.34
2023-04-30T18:32:42.073Z,36.69
2023-04-30T18:35:10.680Z,36.66
2023-04-30T18:37:39.170Z,37.01
2023-04-30T18:40:08.271Z,37.53
2023-04-30T18:42:37.753Z,37.80
2023-04-30T18:45:06.895Z,38.31
2023-04-30T18:47:35.600Z,38.64
2023-04-30T18:50:06.589Z,38.35
2023-04-30T18:52:39.504Z,38.22
2023-04-30T18:55:08.872Z,38.39
2023-04-30T18:57:39.159Z,38.57
2023-04-30T19:00:10.112Z,38.85
2023-04-30T19:02:38.548Z,39.24
2023-04-30T19:05:07.771Z,39.75
2023-04-30T19:07:36.055Z,39.68
2023-04-30T19:10:05.108Z,39.64
2023-04-30T19:12:33.450Z,39.88
2023-04-30T19:15:01.959Z,40.14
2023-04-30T19:17:30.857Z,40.38
2023-04-30T19:20:00.342Z,40.33
2023-04-30T19:22:28.820Z,40.53
2023-04-30T19:24:57.511Z,41.62
2023-04-30T19:27:25.896Z,41.79
2023-04-30T19:29:54.932Z,41.84
2023-04-30T19:32:24.034Z,41.64
2023-04-30T19:34:52.687Z,41.48
2023-04-30T19:37:21.885Z,41.77
2023-04-30T19:39:53.028Z,42.06
2023-04-30T19:42:21.620Z,41.91
2023-04-30T19:44:53.065Z,42.67
2023-04-30T19:47:23.330Z,43.18
2023-04-30T19:49:53.278Z,43.34
2023-04-30T19:52:22.227Z,43.39
2023-04-30T19:54:50.718Z,43.16
2023-04-30T19:57:18.985Z,43.57
2023-04-30T19:59:47.687Z,44.96
2023-04-30T20:02:16.270Z,44.98
2023-04-30T20:04:44.685Z,44.92
2023-04-30T20:07:14.192Z,44.90
2023-04-30T20:09:42.367Z,45.50
2023-04-30T20:12:10.843Z,45.82
2023-04-30T20:14:39.648Z,45.98
2023-04-30T20:17:08.809Z,45.87
2023-04-30T20:19:37.244Z,46.02
2023-04-30T20:22:13.201Z,46.21
2023-04-30T20:24:44.979Z,46.49
2023-04-30T20:27:13.646Z,46.96
2023-04-30T20:29:42.312Z,47.19
2023-04-30T20:32:10.681Z,47.27
2023-04-30T20:34:39.192Z,47.36
2023-04-30T20:37:07.799Z,47.36
2023-04-30T20:39:38.720Z,47.21
2023-04-30T20:42:07.108Z,47.28
2023-04-30T20:44:35.290Z,47.97
2023-04-30T20:47:05.540Z,47.76
2023-04-30T20:49:34.206Z,47.80
2023-04-30T20:52:02.506Z,47.96
2023-04-30T20:54:30.888Z,48.68
2023-04-30T20:56:59.064Z,48.90
2023-04-30T20:59:27.644Z,49.25
2023-04-30T21:01:56.058Z,49.23
2023-04-30T21:04:24.319Z,49.23
2023-04-30T21:06:52.997Z,49.38
2023-04-30T21:09:22.417Z,49.48
2023-04-30T21:11:50.697Z,49.50
2023-04-30T21:14:19.073Z,49.87
2023-04-30T21:16:47.595Z,50.17
2023-04-30T21:19:16.463Z,50.70
2023-04-30T21:21:45.050Z,50.55
2023-04-30T21:24:13.842Z,50.49
2023-04-30T21:26:42.642Z,50.63
2023-04-30T21:29:11.336Z,51.29
2023-04-30T21:31:41.681Z,51.63
2023-04-30T21:34:09.943Z,51.99
2023-04-30T21:36:42.100Z,51.96
2023-04-30T21:39:10.590Z,51.84
2023-04-30T21:41:38.880Z,52.13
2023-04-30T21:44:07.184Z,52.07
2023-04-30T21:46:36.133Z,52.16
2023-04-30T21:49:04.956Z,51.96
2023-04-30T21:51:33.347Z,52.69
2023-04-30T21:54:04.302Z,53.30
2023-04-30T21:56:32.664Z,53.10
2023-04-30T21:59:00.956Z,52.96
2023-04-30T22:01:30.371Z,53.45
2023-04-30T22:03:59.123Z,53.44
2023-04-30T22:06:28.828Z,53.49
2023-04-30T22:08:57.961Z,53.42
2023-04-30T22:11:27.377Z,53.20
2023-04-30T22:13:55.772Z,53.31
2023-04-30T22:16:25.266Z,53.32
2023-04-30T22:18:53.809Z,53.20
2023-04-30T22:21:22.231Z,53.76
2023-04-30T22:23:50.539Z,53.90
2023-04-30T22:26:18.802Z,54.40
2023-04-30T22:28:47.386Z,54.52
2023-04-30T22:31:16.104Z,54.55
2023-04-30T22:33:44.784Z,54.99
2023-04-30T22:36:14.175Z,55.57
2023-04-30T22:38:42.771Z,55.12
2023-04-30T22:41:11.359Z,55.02
2023-04-30T22:43:40.052Z,55.57
2023-04-30T22:46:08.537Z,55.50
2023-04-30T22:48:37.130Z,55.55
2023-04-30T22:51:06.946Z,55.63
2023-04-30T22:53:35.533Z,55.40
2023-04-30T22:56:04.366Z,55.24
2023-04-30T22:58:32.612Z,55.10
2023-04-30T23:01:03.351Z,55.10
2023-04-30T23:03:31.734Z,54.74
2023-04-30T23:06:00.032Z,54.79
2023-04-30T23:08:28.599Z,55.58
2023-04-30T23:10:57.296Z,55.57
2023-04-30T23:13:25.681Z,55.68
2023-04-30T23:15:58.983Z,56.56
2023-04-30T23:18:28.092Z,56.88
2023-04-30T23:20:59.285Z,56.54
2023-04-30T23:23:28.219Z,56.25
2023-04-30T23:25:56.811Z,55.80
2023-04-30T23:28:25.092Z,56.18
2023-04-30T23:30:55.083Z,56.07
2023-04-30T23:33:23.906Z,56.04
2023-04-30T23:35:54.000Z,55.83
2023-04-30T23:38:23.044Z,55.63
2023-04-30T23:40:51.521Z,55.79
2023-04-30T23:43:19.838Z,55.93
2023-04-30T23:45:48.285Z,55.82
2023-04-30T23:48:16.771Z,55.71
2023-04-30T23:50:44.957Z,55.99
2023-04-30T23:53:14.294Z,56.24
2023-04-30T23:55:42.550Z,56.28
2023-04-30T23:58:11.084Z,56.26
